PWSweather.com
Personal Weather Stations
Station Observations

ChardChardGB

Lat: 50.877408, Lon: -2.94964741

Elevation: 341

Station Type: WS3083

http://www.merriott-astro.co.uk/weather/index.htm

High Low Average
Temperature 52.5°F11.4°C 41.5°F5.3°C 46.4°F8.0°C
Dew Point 42.5°F5.8°C 33.7°F0.9°C 38.1°F3.4°C
Winds 8.9 mph 14.3 kmh 0.3 mph 0.5 kmh 4.0 mph WNW6.4 kmh WNW
Wind Gusts 12.1 mph19.5 kmh 1.6 mph2.6 kmh 6.0 mph9.7 kmh
Humidity 85% 60% 73%
Pressure 29.99 in1015.6 mb 29.78 in1008.5 mb -
Precipitation 0.00 in0.0 mm - -
Hour Temp Dew Point Humidity Winds Wind Gusts Pressure Precip Precip Rate Daily Precip Total
12:00 AM 43.5°F6.4°C 35.1°F1.7°C 72% 2.1 mph NW3.4 kmh NW 3.1 mph5.0 kmh 29.78 in1008.5 mb 0.00 in0.0 mm 0.00 in0.0 mm 0.00 in0.0 mm
12:10 AM 43.2°F6.2°C 34.8°F1.6°C 72% 2.8 mph WSW4.5 kmh WSW 4.5 mph7.2 kmh 29.79 in1008.8 mb 0.00 in0.0 mm 0.00 in0.0 mm 0.00 in0.0 mm
12:20 AM 42.4°F5.8°C 34.1°F1.2°C 72% 1.5 mph WSW2.4 kmh WSW 2.2 mph3.5 kmh 29.79 in1008.8 mb 0.00 in0.0 mm 0.00 in0.0 mm 0.00 in0.0 mm
12:30 AM 41.7°F5.4°C 33.7°F0.9°C 73% 1.6 mph SW2.6 kmh SW 3.1 mph5.0 kmh 29.80 in1009.1 mb 0.00 in0.0 mm 0.00 in0.0 mm 0.00 in0.0 mm
12:40 AM 41.7°F5.4°C 34.4°F1.3°C 75% 2.5 mph SW4.0 kmh SW 3.8 mph6.1 kmh 29.80 in1009.1 mb 0.00 in0.0 mm 0.00 in0.0 mm 0.00 in0.0 mm
12:50 AM 41.5°F5.3°C 34.2°F1.2°C 75% 1.7 mph WNW2.7 kmh WNW 3.1 mph5.0 kmh 29.80 in1009.1 mb 0.00 in0.0 mm 0.00 in0.0 mm 0.00 in0.0 mm
01:00 AM 42.4°F5.8°C 35.1°F1.7°C 75% 4.0 mph WNW6.4 kmh WNW 6.0 mph9.7 kmh 29.80 in1009.1 mb 0.00 in0.0 mm 0.00 in0.0 mm 0.00 in0.0 mm
01:10 AM 43.3°F6.3°C 35.6°F2.0°C 74% 5.3 mph NW8.5 kmh NW 7.6 mph12.2 kmh 29.80 in1009.1 mb 0.00 in0.0 mm 0.00 in0.0 mm 0.00 in0.0 mm
01:20 AM 43.5°F6.4°C 35.5°F1.9°C 73% 6.0 mph NW9.7 kmh NW 8.3 mph13.4 kmh 29.81 in1009.5 mb 0.00 in0.0 mm 0.00 in0.0 mm 0.00 in0.0 mm
01:30 AM 43.5°F6.4°C 35.1°F1.7°C 72% 4.6 mph NW7.4 kmh NW 6.0 mph9.7 kmh 29.81 in1009.5 mb 0.00 in0.0 mm 0.00 in0.0 mm 0.00 in0.0 mm
01:40 AM 43.2°F6.2°C 34.8°F1.6°C 72% 4.4 mph NW7.1 kmh NW 7.6 mph12.2 kmh 29.81 in1009.5 mb 0.00 in0.0 mm 0.00 in0.0 mm 0.00 in0.0 mm
01:50 AM 43.0°F6.1°C 34.6°F1.4°C 72% 3.3 mph NW5.3 kmh NW 4.5 mph7.2 kmh 29.81 in1009.5 mb 0.00 in0.0 mm 0.00 in0.0 mm 0.00 in0.0 mm
02:00 AM 42.6°F5.9°C 34.2°F1.2°C 72% 3.7 mph NW6.0 kmh NW 4.5 mph7.2 kmh 29.82 in1009.8 mb 0.00 in0.0 mm 0.00 in0.0 mm 0.00 in0.0 mm
02:10 AM 42.4°F5.8°C 34.1°F1.2°C 72% 3.5 mph NW5.6 kmh NW 4.5 mph7.2 kmh 29.82 in1009.8 mb 0.00 in0.0 mm 0.00 in0.0 mm 0.00 in0.0 mm
02:20 AM 42.8°F6.0°C 34.8°F1.6°C 73% 5.2 mph NW8.4 kmh NW 6.9 mph11.1 kmh 29.82 in1009.8 mb 0.00 in0.0 mm 0.00 in0.0 mm 0.00 in0.0 mm
02:30 AM 42.8°F6.0°C 35.1°F1.7°C 74% 4.1 mph WNW6.6 kmh WNW 4.5 mph7.2 kmh 29.82 in1009.8 mb 0.00 in0.0 mm 0.00 in0.0 mm 0.00 in0.0 mm
02:40 AM 42.8°F6.0°C 35.4°F1.9°C 75% 3.5 mph NW5.6 kmh NW 4.5 mph7.2 kmh 29.83 in1010.2 mb 0.00 in0.0 mm 0.00 in0.0 mm 0.00 in0.0 mm
02:50 AM 42.4°F5.8°C 35.1°F1.7°C 75% 2.8 mph NW4.5 kmh NW 3.8 mph6.1 kmh 29.82 in1009.8 mb 0.00 in0.0 mm 0.00 in0.0 mm 0.00 in0.0 mm
03:00 AM 42.4°F5.8°C 35.4°F1.9°C 76% 2.5 mph W4.0 kmh W 3.1 mph5.0 kmh 29.82 in1009.8 mb 0.00 in0.0 mm 0.00 in0.0 mm 0.00 in0.0 mm
03:10 AM 42.6°F5.9°C 35.9°F2.2°C 77% 2.3 mph W3.7 kmh W 3.8 mph6.1 kmh 29.83 in1010.2 mb 0.00 in0.0 mm 0.00 in0.0 mm 0.00 in0.0 mm
03:20 AM 42.8°F6.0°C 36.4°F2.4°C 78% 3.6 mph NW5.8 kmh NW 6.9 mph11.1 kmh 29.83 in1010.2 mb 0.00 in0.0 mm 0.00 in0.0 mm 0.00 in0.0 mm
03:30 AM 43.0°F6.1°C 36.6°F2.6°C 78% 4.5 mph NW7.2 kmh NW 6.0 mph9.7 kmh 29.82 in1009.8 mb 0.00 in0.0 mm 0.00 in0.0 mm 0.00 in0.0 mm
03:40 AM 43.2°F6.2°C 36.8°F2.7°C 78% 6.0 mph WNW9.7 kmh WNW 7.6 mph12.2 kmh 29.82 in1009.8 mb 0.00 in0.0 mm 0.00 in0.0 mm 0.00 in0.0 mm
03:50 AM 43.3°F6.3°C 36.6°F2.6°C 77% 6.2 mph NW10.0 kmh NW 8.3 mph13.4 kmh 29.83 in1010.2 mb 0.00 in0.0 mm 0.00 in0.0 mm 0.00 in0.0 mm
04:00 AM 43.3°F6.3°C 36.6°F2.6°C 77% 5.5 mph NW8.9 kmh NW 8.3 mph13.4 kmh 29.83 in1010.2 mb 0.00 in0.0 mm 0.00 in0.0 mm 0.00 in0.0 mm
04:10 AM 43.3°F6.3°C 36.6°F2.6°C 77% 5.2 mph NW8.4 kmh NW 6.9 mph11.1 kmh 29.84 in1010.5 mb 0.00 in0.0 mm 0.00 in0.0 mm 0.00 in0.0 mm
04:20 AM 43.3°F6.3°C 36.6°F2.6°C 77% 4.7 mph WNW7.6 kmh WNW 6.0 mph9.7 kmh 29.84 in1010.5 mb 0.00 in0.0 mm 0.00 in0.0 mm 0.00 in0.0 mm
04:30 AM 43.3°F6.3°C 36.6°F2.6°C 77% 4.9 mph NW7.9 kmh NW 7.6 mph12.2 kmh 29.84 in1010.5 mb 0.00 in0.0 mm 0.00 in0.0 mm 0.00 in0.0 mm
04:40 AM 43.3°F6.3°C 36.6°F2.6°C 77% 4.7 mph NW7.6 kmh NW 6.0 mph9.7 kmh 29.84 in1010.5 mb 0.00 in0.0 mm 0.00 in0.0 mm 0.00 in0.0 mm
04:50 AM 43.3°F6.3°C 36.6°F2.6°C 77% 6.0 mph NW9.7 kmh NW 8.3 mph13.4 kmh 29.84 in1010.5 mb 0.00 in0.0 mm 0.00 in0.0 mm 0.00 in0.0 mm
05:00 AM 43.2°F6.2°C 36.4°F2.4°C 77% 5.5 mph NW8.9 kmh NW 6.9 mph11.1 kmh 29.84 in1010.5 mb 0.00 in0.0 mm 0.00 in0.0 mm 0.00 in0.0 mm
05:10 AM 43.2°F6.2°C 36.4°F2.4°C 77% 5.8 mph NW9.3 kmh NW 7.6 mph12.2 kmh 29.85 in1010.8 mb 0.00 in0.0 mm 0.00 in0.0 mm 0.00 in0.0 mm
05:20 AM 43.0°F6.1°C 36.3°F2.4°C 77% 4.2 mph NW6.8 kmh NW 6.0 mph9.7 kmh 29.86 in1011.2 mb 0.00 in0.0 mm 0.00 in0.0 mm 0.00 in0.0 mm
05:30 AM 43.0°F6.1°C 36.6°F2.6°C 78% 5.0 mph NNW8.0 kmh NNW 6.9 mph11.1 kmh 29.86 in1011.2 mb 0.00 in0.0 mm 0.00 in0.0 mm 0.00 in0.0 mm
05:40 AM 42.6°F5.9°C 35.9°F2.2°C 77% 3.6 mph WNW5.8 kmh WNW 5.4 mph8.7 kmh 29.86 in1011.2 mb 0.00 in0.0 mm 0.00 in0.0 mm 0.00 in0.0 mm
05:50 AM 42.3°F5.7°C 35.9°F2.2°C 78% 3.3 mph NW5.3 kmh NW 4.5 mph7.2 kmh 29.86 in1011.2 mb 0.00 in0.0 mm 0.00 in0.0 mm 0.00 in0.0 mm
06:00 AM 42.1°F5.6°C 36.0°F2.2°C 79% 2.8 mph WNW4.5 kmh WNW 4.5 mph7.2 kmh 29.86 in1011.2 mb 0.00 in0.0 mm 0.00 in0.0 mm 0.00 in0.0 mm
06:10 AM 42.4°F5.8°C 36.7°F2.6°C 80% 3.8 mph NW6.1 kmh NW 5.4 mph8.7 kmh 29.86 in1011.2 mb 0.00 in0.0 mm 0.00 in0.0 mm 0.00 in0.0 mm
06:20 AM 42.6°F5.9°C 36.9°F2.7°C 80% 4.2 mph WNW6.8 kmh WNW 5.4 mph8.7 kmh 29.87 in1011.5 mb 0.00 in0.0 mm 0.00 in0.0 mm 0.00 in0.0 mm
06:30 AM 42.4°F5.8°C 36.7°F2.6°C 80% 3.3 mph NW5.3 kmh NW 4.5 mph7.2 kmh 29.87 in1011.5 mb 0.00 in0.0 mm 0.00 in0.0 mm 0.00 in0.0 mm
06:40 AM 42.8°F6.0°C 37.1°F2.8°C 80% 4.0 mph NW6.4 kmh NW 5.4 mph8.7 kmh 29.88 in1011.9 mb 0.00 in0.0 mm 0.00 in0.0 mm 0.00 in0.0 mm
06:50 AM 43.0°F6.1°C 37.2°F2.9°C 80% 3.2 mph NW5.1 kmh NW 5.4 mph8.7 kmh 29.87 in1011.5 mb 0.00 in0.0 mm 0.00 in0.0 mm 0.00 in0.0 mm
07:00 AM 43.2°F6.2°C 37.4°F3.0°C 80% 1.3 mph W2.1 kmh W 1.6 mph2.6 kmh 29.87 in1011.5 mb 0.00 in0.0 mm 0.00 in0.0 mm 0.00 in0.0 mm
07:10 AM 43.5°F6.4°C 37.8°F3.2°C 80% 1.4 mph W2.3 kmh W 2.2 mph3.5 kmh 29.87 in1011.5 mb 0.00 in0.0 mm 0.00 in0.0 mm 0.00 in0.0 mm
07:20 AM 43.9°F6.6°C 38.1°F3.4°C 80% 0.5 mph S0.8 kmh S 1.6 mph2.6 kmh 29.89 in1012.2 mb 0.00 in0.0 mm 0.00 in0.0 mm 0.00 in0.0 mm
07:30 AM 44.2°F6.8°C 38.5°F3.6°C 80% 0.7 mph SW1.1 kmh SW 1.6 mph2.6 kmh 29.89 in1012.2 mb 0.00 in0.0 mm 0.00 in0.0 mm 0.00 in0.0 mm
07:40 AM 44.6°F7.0°C 38.8°F3.8°C 80% 1.2 mph WNW1.9 kmh WNW 3.8 mph6.1 kmh 29.89 in1012.2 mb 0.00 in0.0 mm 0.00 in0.0 mm 0.00 in0.0 mm
07:50 AM 44.8°F7.1°C 39.0°F3.9°C 80% 3.3 mph WNW5.3 kmh WNW 4.5 mph7.2 kmh 29.89 in1012.2 mb 0.00 in0.0 mm 0.00 in0.0 mm 0.00 in0.0 mm
08:00 AM 45.0°F7.2°C 39.2°F4.0°C 80% 3.7 mph NW6.0 kmh NW 4.5 mph7.2 kmh 29.89 in1012.2 mb 0.00 in0.0 mm 0.00 in0.0 mm 0.00 in0.0 mm
08:10 AM 45.3°F7.4°C 39.5°F4.2°C 80% 4.7 mph NW7.6 kmh NW 6.0 mph9.7 kmh 29.88 in1011.9 mb 0.00 in0.0 mm 0.00 in0.0 mm 0.00 in0.0 mm
08:20 AM 45.5°F7.5°C 37.4°F3.0°C 73% 5.2 mph NW8.4 kmh NW 6.9 mph11.1 kmh 29.89 in1012.2 mb 0.00 in0.0 mm 0.00 in0.0 mm 0.00 in0.0 mm
08:30 AM 45.7°F7.6°C 37.2°F2.9°C 72% 6.0 mph WNW9.7 kmh WNW 8.3 mph13.4 kmh 29.89 in1012.2 mb 0.00 in0.0 mm 0.00 in0.0 mm 0.00 in0.0 mm
08:40 AM 45.9°F7.7°C 37.0°F2.8°C 71% 5.2 mph NW8.4 kmh NW 8.3 mph13.4 kmh 29.89 in1012.2 mb 0.00 in0.0 mm 0.00 in0.0 mm 0.00 in0.0 mm
08:50 AM 46.0°F7.8°C 37.2°F2.9°C 71% 4.0 mph NW6.4 kmh NW 6.0 mph9.7 kmh 29.90 in1012.5 mb 0.00 in0.0 mm 0.00 in0.0 mm 0.00 in0.0 mm
09:00 AM 46.4°F8.0°C 37.5°F3.1°C 71% 4.7 mph NW7.6 kmh NW 6.9 mph11.1 kmh 29.90 in1012.5 mb 0.00 in0.0 mm 0.00 in0.0 mm 0.00 in0.0 mm
09:10 AM 46.8°F8.2°C 37.5°F3.1°C 70% 4.6 mph NW7.4 kmh NW 6.0 mph9.7 kmh 29.91 in1012.9 mb 0.00 in0.0 mm 0.00 in0.0 mm 0.00 in0.0 mm
09:20 AM 47.3°F8.5°C 38.0°F3.3°C 70% 4.4 mph NW7.1 kmh NW 5.4 mph8.7 kmh 29.91 in1012.9 mb 0.00 in0.0 mm 0.00 in0.0 mm 0.00 in0.0 mm
09:30 AM 47.7°F8.7°C 38.4°F3.6°C 70% 4.9 mph NW7.9 kmh NW 7.6 mph12.2 kmh 29.91 in1012.9 mb 0.00 in0.0 mm 0.00 in0.0 mm 0.00 in0.0 mm
09:40 AM 47.3°F8.5°C 37.7°F3.2°C 69% 5.9 mph NW9.5 kmh NW 7.6 mph12.2 kmh 29.91 in1012.9 mb 0.00 in0.0 mm 0.00 in0.0 mm 0.00 in0.0 mm
09:50 AM 47.8°F8.8°C 37.8°F3.2°C 68% 4.4 mph NW7.1 kmh NW 5.4 mph8.7 kmh 29.92 in1013.2 mb 0.00 in0.0 mm 0.00 in0.0 mm 0.00 in0.0 mm
10:00 AM 47.7°F8.7°C 36.5°F2.5°C 65% 5.8 mph NW9.3 kmh NW 8.3 mph13.4 kmh 29.92 in1013.2 mb 0.00 in0.0 mm 0.00 in0.0 mm 0.00 in0.0 mm
10:10 AM 47.8°F8.8°C 37.0°F2.8°C 66% 4.4 mph NW7.1 kmh NW 7.6 mph12.2 kmh 29.91 in1012.9 mb 0.00 in0.0 mm 0.00 in0.0 mm 0.00 in0.0 mm
10:20 AM 48.2°F9.0°C 37.4°F3.0°C 66% 5.2 mph NW8.4 kmh NW 7.6 mph12.2 kmh 29.93 in1013.5 mb 0.00 in0.0 mm 0.00 in0.0 mm 0.00 in0.0 mm
10:30 AM 48.9°F9.4°C 38.1°F3.4°C 66% 4.6 mph W7.4 kmh W 7.6 mph12.2 kmh 29.92 in1013.2 mb 0.00 in0.0 mm 0.00 in0.0 mm 0.00 in0.0 mm
10:40 AM 48.7°F9.3°C 37.9°F3.3°C 66% 4.7 mph NW7.6 kmh NW 6.0 mph9.7 kmh 29.92 in1013.2 mb 0.00 in0.0 mm 0.00 in0.0 mm 0.00 in0.0 mm
10:50 AM 48.0°F8.9°C 37.2°F2.9°C 66% 6.2 mph NW10.0 kmh NW 8.3 mph13.4 kmh 29.93 in1013.5 mb 0.00 in0.0 mm 0.00 in0.0 mm 0.00 in0.0 mm
11:00 AM 47.7°F8.7°C 37.6°F3.1°C 68% 5.2 mph WNW8.4 kmh WNW 8.3 mph13.4 kmh 29.92 in1013.2 mb 0.00 in0.0 mm 0.00 in0.0 mm 0.00 in0.0 mm
11:10 AM 48.4°F9.1°C 37.9°F3.3°C 67% 5.5 mph NW8.9 kmh NW 10.7 mph17.2 kmh 29.92 in1013.2 mb 0.00 in0.0 mm 0.00 in0.0 mm 0.00 in0.0 mm
11:20 AM 49.6°F9.8°C 38.8°F3.8°C 66% 4.9 mph W7.9 kmh W 6.9 mph11.1 kmh 29.93 in1013.5 mb 0.00 in0.0 mm 0.00 in0.0 mm 0.00 in0.0 mm
11:30 AM 50.5°F10.3°C 38.4°F3.6°C 63% 4.2 mph WNW6.8 kmh WNW 10.7 mph17.2 kmh 29.92 in1013.2 mb 0.00 in0.0 mm 0.00 in0.0 mm 0.00 in0.0 mm
11:40 AM 49.3°F9.6°C 37.2°F2.9°C 63% 6.5 mph NW10.5 kmh NW 9.2 mph14.8 kmh 29.92 in1013.2 mb 0.00 in0.0 mm 0.00 in0.0 mm 0.00 in0.0 mm
11:50 AM 48.7°F9.3°C 38.3°F3.5°C 67% 6.1 mph NW9.8 kmh NW 8.3 mph13.4 kmh 29.92 in1013.2 mb 0.00 in0.0 mm 0.00 in0.0 mm 0.00 in0.0 mm
12:00 PM 48.9°F9.4°C 38.5°F3.6°C 67% 6.2 mph NNW10.0 kmh NNW 10.7 mph17.2 kmh 29.92 in1013.2 mb 0.00 in0.0 mm 0.00 in0.0 mm 0.00 in0.0 mm
12:10 PM 49.3°F9.6°C 38.8°F3.8°C 67% 5.7 mph NW9.2 kmh NW 9.2 mph14.8 kmh 29.92 in1013.2 mb 0.00 in0.0 mm 0.00 in0.0 mm 0.00 in0.0 mm
12:20 PM 50.7°F10.4°C 39.0°F3.9°C 64% 6.4 mph WNW10.3 kmh WNW 10.7 mph17.2 kmh 29.92 in1013.2 mb 0.00 in0.0 mm 0.00 in0.0 mm 0.00 in0.0 mm
12:30 PM 51.4°F10.8°C 39.3°F4.1°C 63% 5.9 mph WNW9.5 kmh WNW 8.3 mph13.4 kmh 29.91 in1012.9 mb 0.00 in0.0 mm 0.00 in0.0 mm 0.00 in0.0 mm
12:40 PM 52.3°F11.3°C 39.7°F4.3°C 62% 6.7 mph NW10.8 kmh NW 11.4 mph18.3 kmh 29.90 in1012.5 mb 0.00 in0.0 mm 0.00 in0.0 mm 0.00 in0.0 mm
12:50 PM 52.5°F11.4°C 39.0°F3.9°C 60% 6.9 mph NW11.1 kmh NW 9.2 mph14.8 kmh 29.91 in1012.9 mb 0.00 in0.0 mm 0.00 in0.0 mm 0.00 in0.0 mm
01:00 PM 50.7°F10.4°C 37.8°F3.2°C 61% 7.6 mph WNW12.2 kmh WNW 12.1 mph19.5 kmh 29.92 in1013.2 mb 0.00 in0.0 mm 0.00 in0.0 mm 0.00 in0.0 mm
01:10 PM 50.2°F10.1°C 38.1°F3.4°C 63% 8.9 mph NW14.3 kmh NW 11.4 mph18.3 kmh 29.91 in1012.9 mb 0.00 in0.0 mm 0.00 in0.0 mm 0.00 in0.0 mm
01:20 PM 50.5°F10.3°C 38.0°F3.3°C 62% 6.2 mph WNW10.0 kmh WNW 7.6 mph12.2 kmh 29.91 in1012.9 mb 0.00 in0.0 mm 0.00 in0.0 mm 0.00 in0.0 mm
01:30 PM 50.2°F10.1°C 38.1°F3.4°C 63% 6.9 mph W11.1 kmh W 9.2 mph14.8 kmh 29.91 in1012.9 mb 0.00 in0.0 mm 0.00 in0.0 mm 0.00 in0.0 mm
01:40 PM 50.4°F10.2°C 38.7°F3.7°C 64% 7.1 mph NW11.4 kmh NW 10.7 mph17.2 kmh 29.90 in1012.5 mb 0.00 in0.0 mm 0.00 in0.0 mm 0.00 in0.0 mm
01:50 PM 50.9°F10.5°C 39.2°F4.0°C 64% 6.5 mph WNW10.5 kmh WNW 8.3 mph13.4 kmh 29.91 in1012.9 mb 0.00 in0.0 mm 0.00 in0.0 mm 0.00 in0.0 mm
02:00 PM 50.7°F10.4°C 38.2°F3.4°C 62% 7.5 mph WNW12.1 kmh WNW 10.7 mph17.2 kmh 29.91 in1012.9 mb 0.00 in0.0 mm 0.00 in0.0 mm 0.00 in0.0 mm
02:10 PM 50.0°F10.0°C 37.9°F3.3°C 63% 7.7 mph NW12.4 kmh NW 11.4 mph18.3 kmh 29.90 in1012.5 mb 0.00 in0.0 mm 0.00 in0.0 mm 0.00 in0.0 mm
02:20 PM 50.9°F10.5°C 39.6°F4.2°C 65% 6.2 mph W10.0 kmh W 8.3 mph13.4 kmh 29.90 in1012.5 mb 0.00 in0.0 mm 0.00 in0.0 mm 0.00 in0.0 mm
02:30 PM 50.9°F10.5°C 39.2°F4.0°C 64% 6.0 mph NW9.7 kmh NW 9.2 mph14.8 kmh 29.91 in1012.9 mb 0.00 in0.0 mm 0.00 in0.0 mm 0.00 in0.0 mm
02:40 PM 49.6°F9.8°C 38.0°F3.3°C 64% 6.9 mph NW11.1 kmh NW 9.8 mph15.8 kmh 29.90 in1012.5 mb 0.00 in0.0 mm 0.00 in0.0 mm 0.00 in0.0 mm
02:50 PM 49.5°F9.7°C 39.0°F3.9°C 67% 6.5 mph NW10.5 kmh NW 8.3 mph13.4 kmh 29.91 in1012.9 mb 0.00 in0.0 mm 0.00 in0.0 mm 0.00 in0.0 mm
03:00 PM 49.6°F9.8°C 39.5°F4.2°C 68% 4.9 mph WNW7.9 kmh WNW 7.6 mph12.2 kmh 29.91 in1012.9 mb 0.00 in0.0 mm 0.00 in0.0 mm 0.00 in0.0 mm
03:10 PM 49.1°F9.5°C 39.0°F3.9°C 68% 6.2 mph WNW10.0 kmh WNW 12.1 mph19.5 kmh 29.91 in1012.9 mb 0.00 in0.0 mm 0.00 in0.0 mm 0.00 in0.0 mm
03:20 PM 49.1°F9.5°C 39.7°F4.3°C 70% 5.4 mph NW8.7 kmh NW 7.6 mph12.2 kmh 29.91 in1012.9 mb 0.00 in0.0 mm 0.00 in0.0 mm 0.00 in0.0 mm
03:30 PM 48.9°F9.4°C 39.2°F4.0°C 69% 5.7 mph NW9.2 kmh NW 7.6 mph12.2 kmh 29.91 in1012.9 mb 0.00 in0.0 mm 0.00 in0.0 mm 0.00 in0.0 mm
03:40 PM 49.1°F9.5°C 39.7°F4.3°C 70% 7.5 mph NW12.1 kmh NW 9.8 mph15.8 kmh 29.91 in1012.9 mb 0.00 in0.0 mm 0.00 in0.0 mm 0.00 in0.0 mm
03:50 PM 50.4°F10.2°C 41.0°F5.0°C 70% 5.7 mph NW9.2 kmh NW 8.3 mph13.4 kmh 29.91 in1012.9 mb 0.00 in0.0 mm 0.00 in0.0 mm 0.00 in0.0 mm
04:00 PM 50.7°F10.4°C 39.8°F4.3°C 66% 5.9 mph NW9.5 kmh NW 7.6 mph12.2 kmh 29.90 in1012.5 mb 0.00 in0.0 mm 0.00 in0.0 mm 0.00 in0.0 mm
04:10 PM 50.2°F10.1°C 39.3°F4.1°C 66% 5.8 mph WNW9.3 kmh WNW 6.9 mph11.1 kmh 29.90 in1012.5 mb 0.00 in0.0 mm 0.00 in0.0 mm 0.00 in0.0 mm
04:20 PM 50.4°F10.2°C 40.2°F4.6°C 68% 6.1 mph WNW9.8 kmh WNW 8.3 mph13.4 kmh 29.90 in1012.5 mb 0.00 in0.0 mm 0.00 in0.0 mm 0.00 in0.0 mm
04:30 PM 50.4°F10.2°C 39.4°F4.1°C 66% 5.1 mph NW8.2 kmh NW 8.3 mph13.4 kmh 29.91 in1012.9 mb 0.00 in0.0 mm 0.00 in0.0 mm 0.00 in0.0 mm
04:40 PM 49.5°F9.7°C 39.0°F3.9°C 67% 5.4 mph NW8.7 kmh NW 8.3 mph13.4 kmh 29.91 in1012.9 mb 0.00 in0.0 mm 0.00 in0.0 mm 0.00 in0.0 mm
04:50 PM 52.0°F11.1°C 42.5°F5.8°C 70% 3.7 mph NW6.0 kmh NW 6.0 mph9.7 kmh 29.91 in1012.9 mb 0.00 in0.0 mm 0.00 in0.0 mm 0.00 in0.0 mm
05:00 PM 51.6°F10.9°C 39.8°F4.3°C 64% 3.5 mph N5.6 kmh N 6.9 mph11.1 kmh 29.92 in1013.2 mb 0.00 in0.0 mm 0.00 in0.0 mm 0.00 in0.0 mm
05:10 PM 50.4°F10.2°C 39.1°F3.9°C 65% 5.5 mph W8.9 kmh W 7.6 mph12.2 kmh 29.93 in1013.5 mb 0.00 in0.0 mm 0.00 in0.0 mm 0.00 in0.0 mm
05:20 PM 50.0°F10.0°C 39.5°F4.2°C 67% 5.1 mph NW8.2 kmh NW 7.6 mph12.2 kmh 29.93 in1013.5 mb 0.00 in0.0 mm 0.00 in0.0 mm 0.00 in0.0 mm
05:30 PM 49.5°F9.7°C 39.7°F4.3°C 69% 5.0 mph WNW8.0 kmh WNW 6.9 mph11.1 kmh 29.93 in1013.5 mb 0.00 in0.0 mm 0.00 in0.0 mm 0.00 in0.0 mm
05:40 PM 48.6°F9.2°C 39.2°F4.0°C 70% 4.3 mph NNW6.9 kmh NNW 8.3 mph13.4 kmh 29.93 in1013.5 mb 0.00 in0.0 mm 0.00 in0.0 mm 0.00 in0.0 mm
05:50 PM 48.4°F9.1°C 39.4°F4.1°C 71% 3.6 mph NW5.8 kmh NW 5.4 mph8.7 kmh 29.93 in1013.5 mb 0.00 in0.0 mm 0.00 in0.0 mm 0.00 in0.0 mm
06:00 PM 48.2°F9.0°C 39.2°F4.0°C 71% 3.8 mph WNW6.1 kmh WNW 5.4 mph8.7 kmh 29.93 in1013.5 mb 0.00 in0.0 mm 0.00 in0.0 mm 0.00 in0.0 mm
06:10 PM 48.0°F8.9°C 39.4°F4.1°C 72% 4.4 mph WNW7.1 kmh WNW 5.4 mph8.7 kmh 29.93 in1013.5 mb 0.00 in0.0 mm 0.00 in0.0 mm 0.00 in0.0 mm
06:20 PM 47.8°F8.8°C 39.3°F4.1°C 72% 4.1 mph NW6.6 kmh NW 5.4 mph8.7 kmh 29.94 in1013.9 mb 0.00 in0.0 mm 0.00 in0.0 mm 0.00 in0.0 mm
06:30 PM 47.7°F8.7°C 39.1°F3.9°C 72% 2.6 mph NW4.2 kmh NW 3.8 mph6.1 kmh 29.94 in1013.9 mb 0.00 in0.0 mm 0.00 in0.0 mm 0.00 in0.0 mm
06:40 PM 47.5°F8.6°C 39.3°F4.1°C 73% 2.3 mph NW3.7 kmh NW 3.8 mph6.1 kmh 29.94 in1013.9 mb 0.00 in0.0 mm 0.00 in0.0 mm 0.00 in0.0 mm
06:50 PM 47.3°F8.5°C 39.1°F3.9°C 73% 3.5 mph NW5.6 kmh NW 5.4 mph8.7 kmh 29.95 in1014.2 mb 0.00 in0.0 mm 0.00 in0.0 mm 0.00 in0.0 mm
07:00 PM 46.9°F8.3°C 39.1°F3.9°C 74% 2.3 mph NW3.7 kmh NW 4.5 mph7.2 kmh 29.95 in1014.2 mb 0.00 in0.0 mm 0.00 in0.0 mm 0.00 in0.0 mm
07:10 PM 46.6°F8.1°C 39.1°F3.9°C 75% 0.8 mph WNW1.3 kmh WNW 1.6 mph2.6 kmh 29.95 in1014.2 mb 0.00 in0.0 mm 0.00 in0.0 mm 0.00 in0.0 mm
07:20 PM 46.6°F8.1°C 39.4°F4.1°C 76% 0.9 mph WSW1.4 kmh WSW 2.2 mph3.5 kmh 29.96 in1014.6 mb 0.00 in0.0 mm 0.00 in0.0 mm 0.00 in0.0 mm
07:30 PM 46.6°F8.1°C 39.8°F4.3°C 77% 1.6 mph W2.6 kmh W 3.1 mph5.0 kmh 29.96 in1014.6 mb 0.00 in0.0 mm 0.00 in0.0 mm 0.00 in0.0 mm
07:40 PM 46.6°F8.1°C 40.1°F4.5°C 78% 2.0 mph SW3.2 kmh SW 3.1 mph5.0 kmh 29.96 in1014.6 mb 0.00 in0.0 mm 0.00 in0.0 mm 0.00 in0.0 mm
07:50 PM 46.6°F8.1°C 40.4°F4.7°C 79% 3.3 mph SW5.3 kmh SW 4.5 mph7.2 kmh 29.96 in1014.6 mb 0.00 in0.0 mm 0.00 in0.0 mm 0.00 in0.0 mm
08:00 PM 46.6°F8.1°C 40.7°F4.8°C 80% 2.9 mph SW4.7 kmh SW 4.5 mph7.2 kmh 29.96 in1014.6 mb 0.00 in0.0 mm 0.00 in0.0 mm 0.00 in0.0 mm
08:10 PM 46.4°F8.0°C 40.6°F4.8°C 80% 3.3 mph W5.3 kmh W 4.5 mph7.2 kmh 29.96 in1014.6 mb 0.00 in0.0 mm 0.00 in0.0 mm 0.00 in0.0 mm
08:20 PM 46.4°F8.0°C 40.6°F4.8°C 80% 3.4 mph NW5.5 kmh NW 5.4 mph8.7 kmh 29.96 in1014.6 mb 0.00 in0.0 mm 0.00 in0.0 mm 0.00 in0.0 mm
08:30 PM 46.4°F8.0°C 40.2°F4.6°C 79% 2.6 mph NW4.2 kmh NW 3.1 mph5.0 kmh 29.97 in1014.9 mb 0.00 in0.0 mm 0.00 in0.0 mm 0.00 in0.0 mm
08:40 PM 46.2°F7.9°C 40.1°F4.5°C 79% 1.8 mph NW2.9 kmh NW 3.1 mph5.0 kmh 29.97 in1014.9 mb 0.00 in0.0 mm 0.00 in0.0 mm 0.00 in0.0 mm
08:50 PM 46.4°F8.0°C 40.2°F4.6°C 79% 1.9 mph WNW3.1 kmh WNW 3.8 mph6.1 kmh 29.97 in1014.9 mb 0.00 in0.0 mm 0.00 in0.0 mm 0.00 in0.0 mm
09:00 PM 46.2°F7.9°C 40.1°F4.5°C 79% 1.7 mph SW2.7 kmh SW 3.8 mph6.1 kmh 29.98 in1015.2 mb 0.00 in0.0 mm 0.00 in0.0 mm 0.00 in0.0 mm
09:10 PM 46.2°F7.9°C 40.1°F4.5°C 79% 2.3 mph WSW3.7 kmh WSW 3.1 mph5.0 kmh 29.98 in1015.2 mb 0.00 in0.0 mm 0.00 in0.0 mm 0.00 in0.0 mm
09:20 PM 46.2°F7.9°C 40.1°F4.5°C 79% 2.0 mph SSW3.2 kmh SSW 3.8 mph6.1 kmh 29.98 in1015.2 mb 0.00 in0.0 mm 0.00 in0.0 mm 0.00 in0.0 mm
09:30 PM 46.0°F7.8°C 40.2°F4.6°C 80% 1.3 mph WSW2.1 kmh WSW 1.6 mph2.6 kmh 29.98 in1015.2 mb 0.00 in0.0 mm 0.00 in0.0 mm 0.00 in0.0 mm
09:40 PM 45.9°F7.7°C 40.0°F4.4°C 80% 1.4 mph WSW2.3 kmh WSW 1.6 mph2.6 kmh 29.98 in1015.2 mb 0.00 in0.0 mm 0.00 in0.0 mm 0.00 in0.0 mm
09:50 PM 45.9°F7.7°C 39.7°F4.3°C 79% 0.5 mph NW0.8 kmh NW 1.6 mph2.6 kmh 29.98 in1015.2 mb 0.00 in0.0 mm 0.00 in0.0 mm 0.00 in0.0 mm
10:00 PM 45.9°F7.7°C 40.0°F4.4°C 80% 1.7 mph W2.7 kmh W 2.2 mph3.5 kmh 29.98 in1015.2 mb 0.00 in0.0 mm 0.00 in0.0 mm 0.00 in0.0 mm
10:10 PM 45.9°F7.7°C 40.0°F4.4°C 80% 0.9 mph SW1.4 kmh SW 2.2 mph3.5 kmh 29.98 in1015.2 mb 0.00 in0.0 mm 0.00 in0.0 mm 0.00 in0.0 mm
10:20 PM 45.7°F7.6°C 39.9°F4.4°C 80% 1.2 mph SW1.9 kmh SW 1.6 mph2.6 kmh 29.98 in1015.2 mb 0.00 in0.0 mm 0.00 in0.0 mm 0.00 in0.0 mm
10:30 PM 45.3°F7.4°C 40.8°F4.9°C 84% 0.6 mph WSW1.0 kmh WSW 1.6 mph2.6 kmh 29.98 in1015.2 mb 0.00 in0.0 mm 0.00 in0.0 mm 0.00 in0.0 mm
10:40 PM 45.1°F7.3°C 40.6°F4.8°C 84% 0.7 mph SSE1.1 kmh SSE 1.6 mph2.6 kmh 29.98 in1015.2 mb 0.00 in0.0 mm 0.00 in0.0 mm 0.00 in0.0 mm
10:50 PM 45.0°F7.2°C 40.4°F4.7°C 84% 1.3 mph ESE2.1 kmh ESE 2.2 mph3.5 kmh 29.98 in1015.2 mb 0.00 in0.0 mm 0.00 in0.0 mm 0.00 in0.0 mm
11:00 PM 45.0°F7.2°C 40.4°F4.7°C 84% 1.4 mph SW2.3 kmh SW 1.6 mph2.6 kmh 29.99 in1015.6 mb 0.00 in0.0 mm 0.00 in0.0 mm 0.00 in0.0 mm
11:10 PM 45.0°F7.2°C 40.4°F4.7°C 84% 1.5 mph WSW2.4 kmh WSW 2.2 mph3.5 kmh 29.99 in1015.6 mb 0.00 in0.0 mm 0.00 in0.0 mm 0.00 in0.0 mm
11:20 PM 45.0°F7.2°C 40.4°F4.7°C 84% 0.6 mph S1.0 kmh S 1.6 mph2.6 kmh 29.99 in1015.6 mb 0.00 in0.0 mm 0.00 in0.0 mm 0.00 in0.0 mm
11:30 PM 45.3°F7.4°C 41.1°F5.1°C 85% 1.2 mph S1.9 kmh S 2.2 mph3.5 kmh 29.99 in1015.6 mb 0.00 in0.0 mm 0.00 in0.0 mm 0.00 in0.0 mm
11:40 PM 45.5°F7.5°C 39.7°F4.3°C 80% 0.3 mph WNW0.5 kmh WNW 1.6 mph2.6 kmh 29.99 in1015.6 mb 0.00 in0.0 mm 0.00 in0.0 mm 0.00 in0.0 mm
11:50 PM 45.9°F7.7°C 40.0°F4.4°C 80% 1.1 mph WSW1.8 kmh WSW 2.2 mph3.5 kmh 29.99 in1015.6 mb 0.00 in0.0 mm 0.00 in0.0 mm 0.00 in0.0 mm